Time;durP1;ratioP1;P1;durP2;ratioP2;P2;SDS_P1;SDS_P2;PMS_P1;PMS_P2;Temp;Humidity;BMP_temperature;BMP_pressure;BME280_temperature;BME280_humidity;BME280_pressure;Samples;Min_cycle;Max_cycle;Signal;HPM_P1;HPM_P2
2021/12/26 00:02:07;;;;;;;19.88;13.63;;;;;;;3.51;100.00;95556.25;4993267;28;20042;-64
2021/12/26 00:04:33;;;;;;;18.52;12.85;;;;;;;3.55;100.00;95565.22;5014433;28;20034;-64
2021/12/26 00:06:59;;;;;;;19.15;13.55;;;;;;;3.55;100.00;95559.81;4999375;28;21168;-63
2021/12/26 00:09:24;;;;;;;18.98;13.20;;;;;;;3.64;100.00;95555.00;4995002;28;20041;-61
2021/12/26 00:11:50;;;;;;;19.00;11.60;;;;;;;3.62;100.00;95557.28;4997346;28;20046;-62
2021/12/26 00:14:15;;;;;;;16.35;11.13;;;;;;;3.63;100.00;95552.66;4992151;28;20041;-62
2021/12/26 00:16:42;;;;;;;16.17;11.20;;;;;;;3.59;100.00;95557.97;4999438;28;20143;-60
2021/12/26 00:19:08;;;;;;;17.13;11.23;;;;;;;3.56;100.00;95569.50;4994872;28;20041;-61
2021/12/26 00:21:34;;;;;;;19.02;12.57;;;;;;;3.58;100.00;95561.03;5000332;28;20041;-62
2021/12/26 00:23:59;;;;;;;17.00;11.68;;;;;;;3.56;100.00;95560.59;4996943;28;20042;-61
2021/12/26 00:26:25;;;;;;;19.00;12.45;;;;;;;3.54;100.00;95563.66;4997391;28;20052;-62
2021/12/26 00:28:51;;;;;;;19.23;12.30;;;;;;;3.55;100.00;95553.63;5002343;28;20499;-62
2021/12/26 00:31:17;;;;;;;17.08;11.65;;;;;;;3.58;100.00;95553.72;4992360;28;20038;-62
2021/12/26 00:33:44;;;;;;;17.90;12.27;;;;;;;3.57;100.00;95554.84;5014230;28;20052;-62
2021/12/26 00:36:09;;;;;;;17.55;11.73;;;;;;;3.60;100.00;95550.63;5009514;28;20041;-61
2021/12/26 00:38:35;;;;;;;16.60;11.43;;;;;;;3.66;100.00;95553.88;5021087;28;20060;-61
2021/12/26 00:41:01;;;;;;;17.63;12.15;;;;;;;3.63;100.00;95555.34;5023194;28;20402;-61
2021/12/26 00:43:26;;;;;;;18.88;12.88;;;;;;;3.64;100.00;95548.81;5017731;28;20041;-63
2021/12/26 00:45:52;;;;;;;16.25;11.30;;;;;;;3.64;100.00;95552.31;5022241;28;20037;-63
2021/12/26 00:48:18;;;;;;;16.83;11.48;;;;;;;3.66;100.00;95556.59;5017797;28;20042;-63
2021/12/26 00:50:43;;;;;;;17.77;11.93;;;;;;;3.65;100.00;95553.06;5021833;28;20406;-61
2021/12/26 00:53:09;;;;;;;17.25;11.68;;;;;;;3.68;100.00;95552.38;5017593;28;20045;-62
2021/12/26 00:55:35;;;;;;;18.90;11.73;;;;;;;3.73;100.00;95560.25;5031157;28;20048;-61
2021/12/26 00:58:02;;;;;;;17.83;11.82;;;;;;;3.77;100.00;95555.69;5023630;28;20044;-63
2021/12/26 01:00:30;;;;;;;17.05;11.23;;;;;;;3.79;100.00;95544.53;5000482;28;20046;-64
2021/12/26 01:03:03;;;;;;;17.05;11.55;;;;;;;3.76;100.00;95550.63;5003348;28;20037;-63
2021/12/26 01:05:30;;;;;;;14.80;10.77;;;;;;;3.67;100.00;95548.09;5020690;28;20045;-62
2021/12/26 01:08:01;;;;;;;19.67;11.43;;;;;;;3.59;100.00;95549.84;5022925;28;20393;-64
2021/12/26 01:10:38;;;;;;;17.00;11.45;;;;;;;3.59;100.00;95557.19;5017831;28;20045;-63
2021/12/26 01:13:17;;;;;;;16.40;11.43;;;;;;;3.51;100.00;95553.53;5032918;28;20045;-61
2021/12/26 01:15:45;;;;;;;16.98;11.70;;;;;;;3.63;100.00;95556.13;5019385;28;20048;-63
2021/12/26 01:18:11;;;;;;;17.15;11.57;;;;;;;3.71;100.00;95561.72;5017937;28;20037;-61
2021/12/26 01:21:03;;;;;;;17.88;11.77;;;;;;;3.73;100.00;95562.19;5026125;28;20095;-63
2021/12/26 01:23:24;;;;;;;16.92;10.65;;;;;;;3.74;100.00;95569.16;5014912;28;21105;-62
2021/12/26 01:25:50;;;;;;;18.92;10.68;;;;;;;3.73;100.00;95568.38;5017750;28;20045;-61
2021/12/26 01:28:21;;;;;;;17.95;11.70;;;;;;;3.69;100.00;95572.13;5023878;28;20042;-62
2021/12/26 01:30:47;;;;;;;18.70;12.52;;;;;;;3.58;100.00;95571.84;5020501;28;20037;-62
2021/12/26 01:33:15;;;;;;;15.25;10.93;;;;;;;3.56;100.00;95574.91;5016214;28;20136;-62
2021/12/26 01:35:40;;;;;;;16.58;11.75;;;;;;;3.68;100.00;95579.47;5021128;28;20104;-59
2021/12/26 01:38:10;;;;;;;15.88;11.18;;;;;;;3.73;100.00;95584.63;5016301;28;20033;-59
2021/12/26 01:40:39;;;;;;;16.92;12.07;;;;;;;3.82;100.00;95595.28;5022658;28;20061;-61
2021/12/26 01:43:05;;;;;;;15.85;11.48;;;;;;;3.87;100.00;95599.66;5015967;28;20037;-62
2021/12/26 01:45:30;;;;;;;17.48;12.23;;;;;;;3.90;100.00;95591.59;5018440;28;20046;-62
2021/12/26 01:48:02;;;;;;;16.38;11.57;;;;;;;3.92;100.00;95594.75;5022287;28;20411;-60
2021/12/26 01:50:29;;;;;;;19.02;12.38;;;;;;;3.91;100.00;95601.31;4998437;28;20041;-62
2021/12/26 01:52:55;;;;;;;17.90;11.98;;;;;;;4.00;100.00;95599.22;5001644;28;20132;-62
2021/12/26 01:55:36;;;;;;;17.42;11.25;;;;;;;4.06;100.00;95596.25;4997152;28;20586;-62
2021/12/26 01:58:02;;;;;;;16.75;11.15;;;;;;;4.09;100.00;95603.66;5003769;28;20057;-63
2021/12/26 02:00:28;;;;;;;17.50;11.02;;;;;;;3.99;100.00;95596.84;5017869;28;20045;-63
2021/12/26 02:02:53;;;;;;;22.02;13.00;;;;;;;3.79;100.00;95604.09;5023526;28;20037;-63
2021/12/26 02:05:19;;;;;;;36.28;19.08;;;;;;;3.56;100.00;95606.63;5031125;28;20091;-62
2021/12/26 02:07:44;;;;;;;20.95;14.60;;;;;;;3.41;100.00;95608.19;5020379;28;20502;-63
2021/12/26 02:10:10;;;;;;;24.48;14.75;;;;;;;3.31;100.00;95606.75;5015759;28;20124;-63
2021/12/26 02:12:36;;;;;;;21.13;14.68;;;;;;;3.24;100.00;95610.06;5018987;28;20486;-62
2021/12/26 02:15:02;;;;;;;23.65;15.40;;;;;;;3.24;100.00;95603.84;5018313;28;20045;-63
2021/12/26 02:17:28;;;;;;;23.67;14.93;;;;;;;3.21;100.00;95607.28;5017067;28;20065;-62
2021/12/26 02:20:29;;;;;;;23.77;14.40;;;;;;;3.22;100.00;95604.22;5032572;28;20041;-63
2021/12/26 02:23:00;;;;;;;26.48;15.27;;;;;;;3.19;100.00;95604.13;5015091;28;20069;-63
2021/12/26 02:25:32;;;;;;;25.92;15.07;;;;;;;3.23;100.00;95602.28;5014584;28;20135;-63
2021/12/26 02:27:58;;;;;;;23.77;14.90;;;;;;;3.38;100.00;95606.16;5013728;28;20511;-63
2021/12/26 02:30:23;;;;;;;22.13;13.93;;;;;;;3.44;100.00;95604.78;5011837;28;20384;-63
2021/12/26 02:32:51;;;;;;;26.05;15.95;;;;;;;3.42;100.00;95605.13;5018866;28;20080;-59
2021/12/26 02:35:19;;;;;;;23.20;14.70;;;;;;;3.44;100.00;95602.84;5015079;28;20452;-63
2021/12/26 02:37:45;;;;;;;26.88;17.58;;;;;;;3.40;100.00;95602.00;5015674;28;20040;-63
2021/12/26 02:40:12;;;;;;;23.90;15.15;;;;;;;3.38;100.00;95608.88;5014517;28;20061;-63
2021/12/26 02:42:37;;;;;;;25.23;15.55;;;;;;;3.44;100.00;95602.84;5015966;28;20041;-63
2021/12/26 02:45:03;;;;;;;25.85;15.63;;;;;;;3.52;100.00;95603.81;5029761;28;20076;-62
2021/12/26 02:47:34;;;;;;;24.80;15.95;;;;;;;3.57;100.00;95610.91;5016614;28;20053;-62
2021/12/26 02:50:04;;;;;;;26.63;16.75;;;;;;;3.50;100.00;95608.03;5020483;28;20049;-62
2021/12/26 02:52:29;;;;;;;29.88;17.40;;;;;;;3.42;100.00;95605.13;5000102;28;20063;-61
2021/12/26 02:54:59;;;;;;;31.55;17.33;;;;;;;3.41;100.00;95606.25;4994851;28;20033;-62
2021/12/26 02:57:25;;;;;;;28.55;16.67;;;;;;;3.42;100.00;95607.03;4994514;28;20238;-62
2021/12/26 02:59:50;;;;;;;27.08;16.70;;;;;;;3.46;100.00;95607.94;5000809;28;20077;-59
2021/12/26 03:02:15;;;;;;;28.52;17.30;;;;;;;3.52;100.00;95611.94;5008581;28;20042;-62
2021/12/26 03:04:41;;;;;;;30.80;17.38;;;;;;;3.49;100.00;95614.56;4997338;28;20503;-61
2021/12/26 03:07:07;;;;;;;27.95;16.60;;;;;;;3.42;100.00;95610.53;5008445;28;20132;-61
2021/12/26 03:09:42;;;;;;;27.38;17.13;;;;;;;3.39;100.00;95613.94;5017871;28;20398;-59
2021/12/26 03:12:09;;;;;;;29.23;16.92;;;;;;;3.30;100.00;95607.13;5011632;28;20351;-63
2021/12/26 03:14:35;;;;;;;38.22;18.83;;;;;;;3.22;100.00;95611.53;5048750;28;20069;-61
2021/12/26 03:17:01;;;;;;;37.97;20.45;;;;;;;3.09;100.00;95599.19;5019950;28;20119;-63
2021/12/26 03:19:30;;;;;;;76.50;21.25;;;;;;;3.07;100.00;95613.06;5016100;28;20037;-63
2021/12/26 03:21:56;;;;;;;142.97;23.70;;;;;;;3.01;100.00;95604.41;5027185;28;20045;-62
2021/12/26 03:24:21;;;;;;;42.15;23.17;;;;;;;3.11;100.00;95599.63;5013449;28;20299;-60
2021/12/26 03:26:46;;;;;;;51.35;24.10;;;;;;;3.18;100.00;95603.31;5020106;28;20105;-62
2021/12/26 03:29:12;;;;;;;51.78;25.25;;;;;;;3.21;100.00;95608.03;5008322;28;20056;-63
2021/12/26 03:31:39;;;;;;;53.95;25.70;;;;;;;3.21;100.00;95610.75;5047403;28;20033;-61
2021/12/26 03:34:04;;;;;;;53.03;26.27;;;;;;;3.23;100.00;95605.78;5019182;28;20030;-62
2021/12/26 03:36:30;;;;;;;58.42;26.60;;;;;;;3.27;100.00;95613.22;5017968;28;20106;-63
2021/12/26 03:38:55;;;;;;;60.42;27.35;;;;;;;3.30;100.00;95605.19;5019851;28;20037;-62
2021/12/26 03:41:22;;;;;;;63.90;28.60;;;;;;;3.34;100.00;95608.78;5014381;28;20140;-62
2021/12/26 03:43:48;;;;;;;61.72;29.45;;;;;;;3.39;100.00;95605.81;5034996;28;20045;-62
2021/12/26 03:46:13;;;;;;;65.88;30.65;;;;;;;3.44;100.00;95612.91;5011334;28;20041;-63
2021/12/26 03:48:39;;;;;;;63.30;30.40;;;;;;;3.46;100.00;95602.50;5019114;28;20037;-63
2021/12/26 03:51:05;;;;;;;66.90;30.23;;;;;;;3.47;100.00;95601.38;5012971;28;20120;-61
2021/12/26 03:53:31;;;;;;;57.03;28.38;;;;;;;3.53;100.00;95610.81;5015487;28;20057;-62
2021/12/26 03:55:56;;;;;;;57.15;27.67;;;;;;;3.64;100.00;95603.75;5033857;28;20048;-62
2021/12/26 03:58:22;;;;;;;58.67;29.27;;;;;;;3.81;100.00;95599.13;5009467;28;20349;-63
2021/12/26 04:00:49;;;;;;;57.83;27.55;;;;;;;3.84;100.00;95601.13;5019505;28;20114;-63
2021/12/26 04:03:15;;;;;;;49.55;26.92;;;;;;;3.96;100.00;95605.66;5017119;28;20042;-62
2021/12/26 04:05:40;;;;;;;59.38;28.80;;;;;;;3.79;100.00;95610.31;5023229;28;20041;-62
2021/12/26 04:08:06;;;;;;;59.33;27.48;;;;;;;3.70;100.00;95595.38;5016722;28;20042;-63
2021/12/26 04:10:32;;;;;;;57.00;27.98;;;;;;;3.66;100.00;95608.81;5039188;28;20072;-63
2021/12/26 04:12:58;;;;;;;60.17;29.13;;;;;;;3.63;100.00;95602.16;5021916;28;20489;-64
2021/12/26 04:15:24;;;;;;;59.72;29.35;;;;;;;3.60;100.00;95600.19;5016935;28;20530;-63
2021/12/26 04:17:52;;;;;;;58.45;28.58;;;;;;;3.58;100.00;95607.06;5021744;28;20798;-63
2021/12/26 04:20:18;;;;;;;61.22;28.85;;;;;;;3.56;100.00;95599.28;5017050;28;20128;-62
2021/12/26 04:22:44;;;;;;;51.17;26.45;;;;;;;3.66;100.00;95614.25;5019777;28;20037;-63
2021/12/26 04:25:10;;;;;;;61.53;28.50;;;;;;;3.78;100.00;95619.59;5016021;28;20041;-62
2021/12/26 04:27:36;;;;;;;70.43;29.13;;;;;;;3.87;100.00;95627.53;5017742;28;20041;-63
2021/12/26 04:30:06;;;;;;;62.88;26.80;;;;;;;3.91;100.00;95616.78;5023328;28;20044;-64
2021/12/26 04:32:31;;;;;;;68.20;28.67;;;;;;;3.97;100.00;95623.50;5015874;28;20612;-62
2021/12/26 04:34:57;;;;;;;48.78;25.25;;;;;;;3.98;100.00;95616.94;5002125;28;20037;-62
2021/12/26 04:37:22;;;;;;;49.42;25.23;;;;;;;4.08;100.00;95624.53;4995876;28;20868;-63
2021/12/26 04:39:48;;;;;;;55.28;26.63;;;;;;;4.12;100.00;95624.63;5003351;28;20125;-63
2021/12/26 04:42:13;;;;;;;80.22;29.85;;;;;;;4.13;100.00;95623.50;4997644;28;20049;-61
2021/12/26 04:44:39;;;;;;;49.60;24.73;;;;;;;4.15;100.00;95630.13;5009004;28;20057;-62
2021/12/26 04:47:05;;;;;;;43.13;22.98;;;;;;;4.22;100.00;95621.41;5018709;28;20038;-62
2021/12/26 04:49:30;;;;;;;46.53;24.45;;;;;;;4.07;100.00;95631.13;5022579;28;20060;-62
2021/12/26 04:51:56;;;;;;;44.00;24.30;;;;;;;3.90;100.00;95626.03;5020064;28;20045;-62
2021/12/26 04:54:21;;;;;;;51.75;25.10;;;;;;;3.75;100.00;95633.03;5013909;28;20543;-62
2021/12/26 04:56:47;;;;;;;51.53;25.80;;;;;;;3.73;100.00;95640.72;5026217;28;20042;-62
2021/12/26 04:59:12;;;;;;;48.45;24.20;;;;;;;3.70;100.00;95639.47;5022059;28;20112;-61
2021/12/26 05:01:40;;;;;;;53.70;24.80;;;;;;;3.66;100.00;95640.53;5023747;28;20159;-62
2021/12/26 05:04:06;;;;;;;57.42;25.65;;;;;;;3.68;100.00;95643.69;5018408;28;20034;-62
2021/12/26 05:06:32;;;;;;;50.83;25.65;;;;;;;3.67;100.00;95645.59;5023302;28;20382;-62
2021/12/26 05:08:57;;;;;;;54.13;26.27;;;;;;;3.65;100.00;95650.56;5021790;28;20065;-63
2021/12/26 05:11:23;;;;;;;55.20;25.75;;;;;;;3.66;100.00;95637.84;5018568;28;20041;-64
2021/12/26 05:13:48;;;;;;;64.60;30.95;;;;;;;3.67;100.00;95650.22;5025291;28;20042;-64
2021/12/26 05:16:14;;;;;;;53.63;26.48;;;;;;;3.71;100.00;95651.91;5018118;28;20049;-62
2021/12/26 05:18:40;;;;;;;45.60;24.85;;;;;;;3.80;100.00;95646.31;5021829;28;20041;-60
2021/12/26 05:21:05;;;;;;;48.67;23.88;;;;;;;3.80;100.00;95647.09;5013085;28;20029;-61
2021/12/26 05:23:30;;;;;;;56.50;27.35;;;;;;;3.62;100.00;95645.88;5019632;28;20450;-62
2021/12/26 05:25:56;;;;;;;54.47;26.38;;;;;;;3.57;100.00;95641.47;5021813;28;20037;-60
2021/12/26 05:28:22;;;;;;;91.90;28.40;;;;;;;3.46;100.00;95645.81;5015841;28;20944;-61
2021/12/26 05:30:47;;;;;;;113.22;28.88;;;;;;;3.43;100.00;95650.00;5024673;28;20056;-62
2021/12/26 05:33:13;;;;;;;128.68;26.85;;;;;;;3.38;100.00;95642.13;5010017;28;20065;-62
2021/12/26 05:35:39;;;;;;;146.50;29.40;;;;;;;3.31;100.00;95647.34;5021001;28;20045;-63
2021/12/26 05:38:04;;;;;;;133.43;31.13;;;;;;;3.30;100.00;95643.06;5016906;28;20045;-62
2021/12/26 05:40:30;;;;;;;131.63;32.78;;;;;;;3.32;100.00;95646.22;5022607;28;20045;-62
2021/12/26 05:42:55;;;;;;;72.70;29.83;;;;;;;3.36;100.00;95636.28;5018562;28;20045;-64
2021/12/26 05:45:21;;;;;;;77.10;31.02;;;;;;;3.38;100.00;95635.94;5018644;28;20045;-63
2021/12/26 05:47:47;;;;;;;76.28;31.67;;;;;;;3.41;100.00;95643.38;5021241;28;20045;-62
2021/12/26 05:50:19;;;;;;;75.45;31.17;;;;;;;3.43;100.00;95641.09;5015725;28;20045;-62
2021/12/26 05:52:45;;;;;;;80.13;31.42;;;;;;;3.42;100.00;95644.94;5021549;28;20132;-62
2021/12/26 05:55:12;;;;;;;82.72;32.10;;;;;;;3.41;100.00;95638.72;4991093;28;20574;-61
2021/12/26 05:57:37;;;;;;;71.20;30.42;;;;;;;3.38;100.00;95644.06;5017340;28;20049;-62
2021/12/26 06:00:11;;;;;;;79.28;31.10;;;;;;;3.38;100.00;95644.81;5012467;28;20048;-60
2021/12/26 06:02:37;;;;;;;68.57;29.58;;;;;;;3.36;100.00;95651.72;5019383;28;20556;-62
2021/12/26 06:05:02;;;;;;;70.10;32.63;;;;;;;3.33;100.00;95649.72;5019165;28;20038;-61
2021/12/26 06:07:28;;;;;;;81.18;31.73;;;;;;;3.31;100.00;95641.94;5014343;28;20128;-64
2021/12/26 06:09:53;;;;;;;75.38;31.42;;;;;;;3.33;100.00;95647.00;5019188;28;20046;-63
2021/12/26 06:12:19;;;;;;;70.57;29.95;;;;;;;3.33;100.00;95653.22;5012623;28;20034;-63
2021/12/26 06:14:44;;;;;;;76.97;32.72;;;;;;;3.31;100.00;95647.34;5034838;28;20394;-64
2021/12/26 06:17:10;;;;;;;82.13;34.05;;;;;;;3.38;100.00;95660.28;5009670;28;20446;-62
2021/12/26 06:19:36;;;;;;;79.88;33.97;;;;;;;3.39;100.00;95649.13;5020167;28;20141;-63
2021/12/26 06:22:02;;;;;;;69.88;30.98;;;;;;;3.42;100.00;95650.34;5018881;28;20491;-62
2021/12/26 06:24:29;;;;;;;79.80;33.33;;;;;;;3.50;100.00;95651.34;5017585;28;20061;-64
2021/12/26 06:26:55;;;;;;;74.07;32.38;;;;;;;3.42;100.00;95650.34;5020187;28;20079;-63
2021/12/26 06:29:20;;;;;;;74.00;34.55;;;;;;;3.41;100.00;95659.59;5015443;28;20516;-62
2021/12/26 06:31:49;;;;;;;74.30;32.85;;;;;;;3.35;100.00;95655.56;5048053;28;20049;-64
2021/12/26 06:34:14;;;;;;;76.00;32.88;;;;;;;3.33;100.00;95655.13;5006183;28;20041;-63
2021/12/26 06:36:40;;;;;;;83.95;34.42;;;;;;;3.34;100.00;95654.78;5018937;28;20530;-64
2021/12/26 06:39:06;;;;;;;77.43;33.03;;;;;;;3.34;100.00;95660.19;5014902;28;20107;-62
2021/12/26 06:41:31;;;;;;;77.32;32.40;;;;;;;3.35;100.00;95664.47;5017485;28;21226;-64
2021/12/26 06:43:57;;;;;;;82.03;36.35;;;;;;;3.37;100.00;95666.84;5017268;28;20445;-63
2021/12/26 06:46:22;;;;;;;91.07;35.78;;;;;;;3.42;100.00;95661.16;5011436;28;20650;-61
2021/12/26 06:48:48;;;;;;;82.85;32.72;;;;;;;3.41;100.00;95660.38;5020144;28;20037;-61
2021/12/26 06:51:13;;;;;;;80.85;32.97;;;;;;;3.41;100.00;95663.09;5013538;28;20491;-63
2021/12/26 06:53:39;;;;;;;78.93;31.42;;;;;;;3.38;100.00;95663.00;5019190;28;20041;-62
2021/12/26 06:56:05;;;;;;;74.38;31.67;;;;;;;3.43;100.00;95670.88;5010955;28;20049;-62
2021/12/26 06:58:32;;;;;;;72.97;31.95;;;;;;;3.48;100.00;95670.63;5018404;28;20041;-63
2021/12/26 07:00:57;;;;;;;73.70;30.92;;;;;;;3.51;100.00;95664.53;5020348;28;20076;-63
2021/12/26 07:03:23;;;;;;;71.10;31.00;;;;;;;3.45;100.00;95672.09;5013694;28;20124;-64
2021/12/26 07:05:48;;;;;;;79.90;32.63;;;;;;;3.43;100.00;95677.06;5018155;28;20045;-62
2021/12/26 07:08:14;;;;;;;75.63;30.15;;;;;;;3.47;100.00;95671.75;5013242;28;20084;-62
2021/12/26 07:10:39;;;;;;;77.97;30.80;;;;;;;3.46;100.00;95686.44;5033428;28;20045;-62
2021/12/26 07:13:04;;;;;;;76.63;31.38;;;;;;;3.44;100.00;95681.34;5012113;28;20120;-61
2021/12/26 07:15:30;;;;;;;70.47;30.38;;;;;;;3.43;100.00;95685.19;5019487;28;20049;-64
2021/12/26 07:17:56;;;;;;;86.55;32.33;;;;;;;3.43;100.00;95681.69;5017536;28;20033;-63
2021/12/26 07:20:21;;;;;;;89.32;38.15;;;;;;;3.43;100.00;95689.81;5013057;28;20042;-63
2021/12/26 07:22:47;;;;;;;89.90;37.38;;;;;;;3.41;100.00;95689.38;5020404;28;20124;-62
2021/12/26 07:25:13;;;;;;;71.88;30.35;;;;;;;3.39;100.00;95686.25;5027676;28;20076;-61
2021/12/26 07:27:39;;;;;;;114.28;59.92;;;;;;;3.42;100.00;95694.47;5019386;28;20088;-61
2021/12/26 07:30:07;;;;;;;83.53;37.58;;;;;;;3.43;100.00;95697.94;5014926;28;20037;-61
2021/12/26 07:32:32;;;;;;;77.88;31.35;;;;;;;3.42;100.00;95691.75;5018681;28;20045;-65
2021/12/26 07:34:58;;;;;;;75.85;33.90;;;;;;;3.42;100.00;95694.47;5020103;28;20115;-64
2021/12/26 07:37:25;;;;;;;80.68;36.42;;;;;;;3.43;100.00;95704.13;5018142;28;20072;-64
2021/12/26 07:39:50;;;;;;;74.50;31.48;;;;;;;3.44;100.00;95704.94;5023081;28;20049;-63
2021/12/26 07:42:16;;;;;;;70.13;30.10;;;;;;;3.49;100.00;95707.38;5014718;28;20049;-63
2021/12/26 07:44:42;;;;;;;76.43;31.40;;;;;;;3.52;100.00;95705.91;5022833;28;20036;-64
2021/12/26 07:47:07;;;;;;;72.90;32.17;;;;;;;3.59;100.00;95698.78;5015922;28;20128;-63
2021/12/26 07:49:33;;;;;;;57.15;26.67;;;;;;;3.68;100.00;95705.97;5038139;28;20069;-63
2021/12/26 07:51:59;;;;;;;59.15;27.35;;;;;;;3.77;100.00;95696.53;5023757;28;20037;-62
2021/12/26 07:54:26;;;;;;;69.20;31.13;;;;;;;3.60;100.00;95705.78;5033306;28;20140;-63
2021/12/26 07:56:53;;;;;;;69.40;34.25;;;;;;;3.57;100.00;95711.09;5025733;28;20034;-63
2021/12/26 07:59:19;;;;;;;64.90;29.90;;;;;;;3.55;100.00;95710.66;5017997;28;20042;-62
2021/12/26 08:01:46;;;;;;;63.58;28.00;;;;;;;3.55;100.00;95718.78;5024809;28;20040;-64
2021/12/26 08:04:13;;;;;;;68.13;30.55;;;;;;;3.54;100.00;95719.91;5019555;28;20041;-62
2021/12/26 08:06:39;;;;;;;59.70;27.48;;;;;;;3.54;100.00;95717.97;5016242;28;20080;-64
2021/12/26 08:09:06;;;;;;;88.35;46.53;;;;;;;3.58;100.00;95718.06;5026017;28;20037;-62
2021/12/26 08:11:32;;;;;;;67.68;28.42;;;;;;;3.58;100.00;95716.16;5023687;28;20042;-62
2021/12/26 08:13:58;;;;;;;66.90;29.02;;;;;;;3.59;100.00;95714.25;5023148;28;20113;-62
2021/12/26 08:16:24;;;;;;;76.40;32.70;;;;;;;3.62;100.00;95716.25;5021263;28;20523;-64
2021/12/26 08:18:49;;;;;;;67.72;31.73;;;;;;;3.72;100.00;95717.69;5007936;28;20656;-64
2021/12/26 08:21:15;;;;;;;65.97;30.02;;;;;;;3.82;100.00;95714.47;5017153;28;20120;-64
2021/12/26 08:23:40;;;;;;;64.75;31.08;;;;;;;3.84;100.00;95714.91;5004091;28;20494;-64
2021/12/26 08:26:05;;;;;;;60.65;27.25;;;;;;;3.82;100.00;95715.25;5010378;28;20038;-63
2021/12/26 08:28:31;;;;;;;64.35;30.77;;;;;;;3.88;100.00;95713.06;5002455;28;20414;-64
2021/12/26 08:30:57;;;;;;;75.15;35.92;;;;;;;3.88;100.00;95717.72;5002841;28;20145;-63
2021/12/26 08:33:22;;;;;;;68.28;31.17;;;;;;;3.92;100.00;95715.88;5001032;28;20975;-64
2021/12/26 08:35:49;;;;;;;59.63;27.50;;;;;;;3.93;100.00;95715.53;5000460;28;20137;-64
2021/12/26 08:38:18;;;;;;;64.10;33.15;;;;;;;3.96;100.00;95722.16;4979267;28;20030;-64
2021/12/26 08:40:44;;;;;;;64.38;29.30;;;;;;;4.02;100.00;95715.38;4984823;28;20101;-64
2021/12/26 08:43:09;;;;;;;57.42;26.10;;;;;;;4.07;100.00;95725.97;4978716;28;20042;-62
2021/12/26 08:45:37;;;;;;;51.55;25.02;;;;;;;4.11;100.00;95724.13;4983834;28;20133;-62
2021/12/26 08:48:03;;;;;;;55.70;26.35;;;;;;;4.17;100.00;95724.63;4997061;28;20051;-63
2021/12/26 08:50:29;;;;;;;49.85;23.42;;;;;;;4.29;100.00;95718.38;5008176;28;20220;-62
2021/12/26 08:52:55;;;;;;;46.88;24.17;;;;;;;4.35;100.00;95728.56;5023063;28;20099;-62
2021/12/26 08:55:21;;;;;;;46.58;24.05;;;;;;;4.42;100.00;95724.47;5016812;28;20525;-63
2021/12/26 08:57:51;;;;;;;41.92;22.38;;;;;;;4.45;100.00;95724.56;5012656;28;20046;-64
2021/12/26 09:00:17;;;;;;;42.17;22.02;;;;;;;4.48;100.00;95728.50;4996419;28;20140;-64
2021/12/26 09:02:43;;;;;;;38.10;20.25;;;;;;;4.78;100.00;95728.81;5002452;28;20046;-63
2021/12/26 09:05:10;;;;;;;36.97;19.73;;;;;;;4.90;100.00;95730.66;5009452;28;20034;-62
2021/12/26 09:07:36;;;;;;;35.92;19.42;;;;;;;4.75;100.00;95732.22;5001088;28;20116;-63
2021/12/26 09:10:04;;;;;;;33.80;18.67;;;;;;;4.78;100.00;95731.53;5000154;28;20518;-61
2021/12/26 09:12:30;;;;;;;30.42;16.50;;;;;;;4.92;100.00;95740.00;5007882;28;20073;-62
2021/12/26 09:14:55;;;;;;;27.50;16.27;;;;;;;4.86;100.00;95741.41;4998752;28;20471;-63
2021/12/26 09:17:21;;;;;;;26.08;16.38;;;;;;;5.08;100.00;95745.41;5002191;28;20042;-62
2021/12/26 09:19:47;;;;;;;22.83;14.13;;;;;;;5.27;100.00;95744.63;5003711;28;20040;-62
2021/12/26 09:22:17;;;;;;;19.23;12.27;;;;;;;5.45;100.00;95755.09;5000539;28;20129;-63
2021/12/26 09:24:44;;;;;;;25.45;13.73;;;;;;;5.49;100.00;95756.75;5001059;28;20129;-63
2021/12/26 09:27:09;;;;;;;31.90;18.45;;;;;;;5.48;100.00;95746.22;4994522;28;20038;-61
2021/12/26 09:29:35;;;;;;;19.58;11.77;;;;;;;5.35;100.00;95751.78;5004298;28;20052;-63
2021/12/26 09:32:02;;;;;;;16.50;11.00;;;;;;;5.35;100.00;95749.06;5018173;28;20041;-62
2021/12/26 09:34:30;;;;;;;26.27;14.07;;;;;;;5.15;100.00;95745.56;5014184;28;20044;-62
2021/12/26 09:36:56;;;;;;;29.23;14.70;;;;;;;5.04;100.00;95758.09;5021509;28;20479;-62
2021/12/26 09:39:23;;;;;;;21.55;12.40;;;;;;;5.08;100.00;95755.47;5016534;28;20884;-63
2021/12/26 09:41:51;;;;;;;22.00;13.02;;;;;;;5.03;100.00;95758.47;5019667;28;20125;-62
2021/12/26 09:44:18;;;;;;;21.13;12.50;;;;;;;5.04;100.00;95754.59;5014687;28;20107;-62
2021/12/26 09:46:43;;;;;;;25.63;13.70;;;;;;;5.04;100.00;95755.41;5021829;28;20037;-62
2021/12/26 09:49:09;;;;;;;22.38;13.68;;;;;;;5.01;100.00;95750.66;5014145;28;20541;-61
2021/12/26 09:51:35;;;;;;;25.10;13.57;;;;;;;4.94;100.00;95748.56;5019528;28;20493;-63
2021/12/26 09:54:01;;;;;;;22.10;13.68;;;;;;;4.94;100.00;95751.28;5020350;28;20041;-63
2021/12/26 09:56:26;;;;;;;28.60;16.38;;;;;;;4.91;100.00;95743.06;5008119;28;20073;-63
2021/12/26 09:59:01;;;;;;;24.00;13.05;;;;;;;4.88;100.00;95747.28;5001632;28;20073;-61
2021/12/26 10:01:39;;;;;;;22.98;13.95;;;;;;;5.01;100.00;95750.66;4999572;28;20045;-63
2021/12/26 10:04:27;;;;;;;22.10;13.50;;;;;;;5.13;100.00;95741.59;5038322;28;20490;-60
2021/12/26 10:07:06;;;;;;;24.90;14.75;;;;;;;5.12;100.00;95740.03;5041147;28;20055;-63
2021/12/26 10:09:35;;;;;;;19.65;12.02;;;;;;;4.95;100.00;95741.19;5017789;28;20103;-63
2021/12/26 10:12:00;;;;;;;21.63;13.82;;;;;;;5.12;100.00;95735.41;5019459;28;20083;-63
2021/12/26 10:14:33;;;;;;;25.92;13.05;;;;;;;5.25;100.00;95730.63;5013787;28;20079;-64
2021/12/26 10:17:03;;;;;;;26.17;12.68;;;;;;;5.31;100.00;95722.97;5017960;28;20049;-65
2021/12/26 10:19:37;;;;;;;20.50;11.93;;;;;;;5.08;100.00;95734.53;4996059;28;20046;-64
2021/12/26 10:22:04;;;;;;;20.42;11.02;;;;;;;5.02;100.00;95721.59;4994616;28;20092;-61
2021/12/26 10:24:31;;;;;;;21.05;13.18;;;;;;;5.02;100.00;95721.59;4994828;28;20048;-66
2021/12/26 10:27:15;;;;;;;22.55;13.45;;;;;;;4.98;100.00;95716.09;5009006;28;20102;-65
2021/12/26 10:29:42;;;;;;;20.23;12.40;;;;;;;5.02;100.00;95722.38;5024735;28;20042;-65
2021/12/26 10:32:10;;;;;;;21.25;12.73;;;;;;;5.14;100.00;95719.53;5023157;28;20045;-65
2021/12/26 10:34:46;;;;;;;17.48;10.75;;;;;;;4.95;100.00;95719.50;5005158;28;20041;-65
2021/12/26 10:37:16;;;;;;;20.48;12.15;;;;;;;4.90;100.00;95715.16;5000369;28;20029;-63
2021/12/26 10:40:03;;;;;;;18.77;11.43;;;;;;;4.92;100.00;95717.50;5017369;28;20044;-63
2021/12/26 10:42:33;;;;;;;19.25;11.57;;;;;;;5.02;100.00;95716.16;5006947;28;20046;-63
2021/12/26 10:45:07;;;;;;;18.35;11.63;;;;;;;5.15;100.00;95721.13;5020622;28;20049;-63
2021/12/26 10:47:35;;;;;;;20.73;12.43;;;;;;;5.46;100.00;95714.00;5008534;28;20052;-63
2021/12/26 10:50:00;;;;;;;17.63;10.45;;;;;;;5.41;100.00;95718.94;5018673;28;20413;-63
2021/12/26 10:52:31;;;;;;;15.48;10.38;;;;;;;5.27;100.00;95714.75;5012888;28;20043;-64
2021/12/26 10:55:01;;;;;;;15.35;10.55;;;;;;;5.25;100.00;95719.75;5011750;28;20049;-63
2021/12/26 10:57:48;;;;;;;21.25;12.77;;;;;;;5.29;100.00;95712.47;5016534;28;20034;-63
2021/12/26 11:00:19;;;;;;;18.02;11.23;;;;;;;5.29;100.00;95717.91;4995531;28;20076;-65
2021/12/26 11:02:55;;;;;;;23.13;12.52;;;;;;;5.19;100.00;95709.56;5019979;28;20088;-65
2021/12/26 11:05:34;;;;;;;22.10;12.02;;;;;;;5.38;100.00;95706.84;4999343;28;20128;-64
2021/12/26 11:08:03;;;;;;;21.10;12.02;;;;;;;5.38;100.00;95709.56;4992632;28;20045;-63
2021/12/26 11:10:38;;;;;;;19.40;12.68;;;;;;;5.35;100.00;95704.84;5001625;28;20045;-64
2021/12/26 11:13:06;;;;;;;21.25;13.65;;;;;;;5.42;100.00;95705.00;5013867;28;20044;-64
2021/12/26 11:15:38;;;;;;;19.05;13.05;;;;;;;5.41;100.00;95700.69;5029144;28;20049;-65
2021/12/26 11:18:08;;;;;;;21.15;12.80;;;;;;;5.61;100.00;95701.47;5013799;28;20136;-62